sensor_id;sensor_type;location;lat;lon;timestamp;temperature;humidity
22795;DHT22;11564;50.920;11.612;2023-05-16T00:01:57;9.40;99.90
22795;DHT22;11564;50.920;11.612;2023-05-16T00:04:22;9.40;99.90
22795;DHT22;11564;50.920;11.612;2023-05-16T00:06:49;9.50;99.90
22795;DHT22;11564;50.920;11.612;2023-05-16T00:09:14;9.60;99.90
22795;DHT22;11564;50.920;11.612;2023-05-16T00:11:40;9.60;99.90
22795;DHT22;11564;50.920;11.612;2023-05-16T00:14:06;9.70;99.90
22795;DHT22;11564;50.920;11.612;2023-05-16T00:16:32;9.80;99.90
22795;DHT22;11564;50.920;11.612;2023-05-16T00:18:57;9.80;99.90
22795;DHT22;11564;50.920;11.612;2023-05-16T00:21:25;9.90;99.90
22795;DHT22;11564;50.920;11.612;2023-05-16T00:23:51;10.00;99.90
22795;DHT22;11564;50.920;11.612;2023-05-16T00:26:17;10.10;99.90
22795;DHT22;11564;50.920;11.612;2023-05-16T00:28:43;10.20;99.90
22795;DHT22;11564;50.920;11.612;2023-05-16T00:31:09;10.20;99.90
22795;DHT22;11564;50.920;11.612;2023-05-16T00:33:34;10.10;99.90
22795;DHT22;11564;50.920;11.612;2023-05-16T00:36:00;10.20;99.90
22795;DHT22;11564;50.920;11.612;2023-05-16T00:38:25;10.20;99.90
22795;DHT22;11564;50.920;11.612;2023-05-16T00:40:51;10.20;99.90
22795;DHT22;11564;50.920;11.612;2023-05-16T00:43:17;10.20;99.90
22795;DHT22;11564;50.920;11.612;2023-05-16T00:45:43;10.20;99.90
22795;DHT22;11564;50.920;11.612;2023-05-16T00:48:11;10.30;99.90
22795;DHT22;11564;50.920;11.612;2023-05-16T00:50:38;10.30;99.90
22795;DHT22;11564;50.920;11.612;2023-05-16T00:53:04;10.30;99.90
22795;DHT22;11564;50.920;11.612;2023-05-16T00:55:30;10.30;99.90
22795;DHT22;11564;50.920;11.612;2023-05-16T00:57:57;10.30;99.90
22795;DHT22;11564;50.920;11.612;2023-05-16T01:00:23;10.40;99.90
22795;DHT22;11564;50.920;11.612;2023-05-16T01:02:49;10.40;99.90
22795;DHT22;11564;50.920;11.612;2023-05-16T01:05:18;10.40;99.90
22795;DHT22;11564;50.920;11.612;2023-05-16T01:07:44;10.40;99.90
22795;DHT22;11564;50.920;11.612;2023-05-16T01:10:10;10.40;99.90
22795;DHT22;11564;50.920;11.612;2023-05-16T01:13:04;10.30;99.90
22795;DHT22;11564;50.920;11.612;2023-05-16T01:15:38;10.40;99.90
22795;DHT22;11564;50.920;11.612;2023-05-16T01:18:22;10.40;99.90
22795;DHT22;11564;50.920;11.612;2023-05-16T01:20:57;10.40;99.90
22795;DHT22;11564;50.920;11.612;2023-05-16T01:26:22;10.40;99.90
22795;DHT22;11564;50.920;11.612;2023-05-16T01:28:53;10.40;99.90
22795;DHT22;11564;50.920;11.612;2023-05-16T01:31:22;10.50;99.90
22795;DHT22;11564;50.920;11.612;2023-05-16T01:33:48;10.40;99.90
22795;DHT22;11564;50.920;11.612;2023-05-16T01:39:16;10.40;99.90
22795;DHT22;11564;50.920;11.612;2023-05-16T01:42:00;10.20;99.90
22795;DHT22;11564;50.920;11.612;2023-05-16T01:44:49;10.10;99.90
22795;DHT22;11564;50.920;11.612;2023-05-16T01:47:16;10.00;99.90
22795;DHT22;11564;50.920;11.612;2023-05-16T01:49:50;10.00;99.90
22795;DHT22;11564;50.920;11.612;2023-05-16T01:52:24;9.90;99.90
22795;DHT22;11564;50.920;11.612;2023-05-16T01:54:52;9.90;99.90
22795;DHT22;11564;50.920;11.612;2023-05-16T01:57:24;9.80;99.90
22795;DHT22;11564;50.920;11.612;2023-05-16T01:59:50;9.70;99.90
22795;DHT22;11564;50.920;11.612;2023-05-16T02:02:19;9.60;99.90
22795;DHT22;11564;50.920;11.612;2023-05-16T02:04:45;9.60;99.90
22795;DHT22;11564;50.920;11.612;2023-05-16T02:07:11;9.50;99.90
22795;DHT22;11564;50.920;11.612;2023-05-16T02:09:39;9.40;99.90
22795;DHT22;11564;50.920;11.612;2023-05-16T02:12:05;9.40;99.90
22795;DHT22;11564;50.920;11.612;2023-05-16T02:14:30;9.40;99.90
22795;DHT22;11564;50.920;11.612;2023-05-16T02:16:56;9.20;99.90
22795;DHT22;11564;50.920;11.612;2023-05-16T02:19:22;9.20;99.90
22795;DHT22;11564;50.920;11.612;2023-05-16T02:21:49;9.10;99.90
22795;DHT22;11564;50.920;11.612;2023-05-16T02:24:15;9.10;99.90
22795;DHT22;11564;50.920;11.612;2023-05-16T02:26:41;9.10;99.90
22795;DHT22;11564;50.920;11.612;2023-05-16T02:29:06;9.00;99.90
22795;DHT22;11564;50.920;11.612;2023-05-16T02:31:32;9.00;99.90
22795;DHT22;11564;50.920;11.612;2023-05-16T02:33:59;9.00;99.90
22795;DHT22;11564;50.920;11.612;2023-05-16T02:36:26;9.00;99.90
22795;DHT22;11564;50.920;11.612;2023-05-16T02:38:52;9.00;99.90
22795;DHT22;11564;50.920;11.612;2023-05-16T02:41:17;9.00;99.90
22795;DHT22;11564;50.920;11.612;2023-05-16T02:43:43;8.90;99.90
22795;DHT22;11564;50.920;11.612;2023-05-16T02:46:26;8.90;99.90
22795;DHT22;11564;50.920;11.612;2023-05-16T02:48:52;8.80;99.90
22795;DHT22;11564;50.920;11.612;2023-05-16T02:51:23;8.70;99.90
22795;DHT22;11564;50.920;11.612;2023-05-16T02:53:49;8.70;99.90
22795;DHT22;11564;50.920;11.612;2023-05-16T02:56:16;8.60;99.90
22795;DHT22;11564;50.920;11.612;2023-05-16T02:58:42;8.40;99.90
22795;DHT22;11564;50.920;11.612;2023-05-16T03:01:08;8.40;99.90
22795;DHT22;11564;50.920;11.612;2023-05-16T03:03:35;8.30;99.90
22795;DHT22;11564;50.920;11.612;2023-05-16T03:06:01;8.20;99.90
22795;DHT22;11564;50.920;11.612;2023-05-16T03:08:27;8.20;99.90
22795;DHT22;11564;50.920;11.612;2023-05-16T03:10:53;8.10;99.90
22795;DHT22;11564;50.920;11.612;2023-05-16T03:13:18;8.10;99.90
22795;DHT22;11564;50.920;11.612;2023-05-16T03:15:44;8.00;99.90
22795;DHT22;11564;50.920;11.612;2023-05-16T03:18:10;7.90;99.90
22795;DHT22;11564;50.920;11.612;2023-05-16T03:20:37;7.80;99.90
22795;DHT22;11564;50.920;11.612;2023-05-16T03:23:03;7.80;99.90
22795;DHT22;11564;50.920;11.612;2023-05-16T03:25:32;7.80;99.90
22795;DHT22;11564;50.920;11.612;2023-05-16T03:27:58;7.70;99.90
22795;DHT22;11564;50.920;11.612;2023-05-16T03:30:23;7.70;99.90
22795;DHT22;11564;50.920;11.612;2023-05-16T03:32:51;7.70;99.90
22795;DHT22;11564;50.920;11.612;2023-05-16T03:35:17;7.70;99.90
22795;DHT22;11564;50.920;11.612;2023-05-16T03:37:42;7.70;99.90
22795;DHT22;11564;50.920;11.612;2023-05-16T03:40:09;7.80;99.90
22795;DHT22;11564;50.920;11.612;2023-05-16T03:42:35;7.80;99.90
22795;DHT22;11564;50.920;11.612;2023-05-16T03:45:01;7.90;99.90
22795;DHT22;11564;50.920;11.612;2023-05-16T03:47:27;7.90;99.90
22795;DHT22;11564;50.920;11.612;2023-05-16T03:49:55;8.00;99.90
22795;DHT22;11564;50.920;11.612;2023-05-16T03:52:21;8.00;99.90
22795;DHT22;11564;50.920;11.612;2023-05-16T03:54:46;8.10;99.90
22795;DHT22;11564;50.920;11.612;2023-05-16T03:57:12;8.10;99.90
22795;DHT22;11564;50.920;11.612;2023-05-16T03:59:38;8.20;99.90
22795;DHT22;11564;50.920;11.612;2023-05-16T04:02:04;8.30;99.90
22795;DHT22;11564;50.920;11.612;2023-05-16T04:04:30;8.50;99.90
22795;DHT22;11564;50.920;11.612;2023-05-16T04:06:55;8.70;99.90
22795;DHT22;11564;50.920;11.612;2023-05-16T04:09:21;9.00;99.90
22795;DHT22;11564;50.920;11.612;2023-05-16T04:11:47;9.00;99.90
22795;DHT22;11564;50.920;11.612;2023-05-16T04:14:13;9.10;99.90
22795;DHT22;11564;50.920;11.612;2023-05-16T04:16:40;9.20;99.90
22795;DHT22;11564;50.920;11.612;2023-05-16T04:19:05;9.30;99.90
22795;DHT22;11564;50.920;11.612;2023-05-16T04:21:31;9.40;99.90
22795;DHT22;11564;50.920;11.612;2023-05-16T04:23:57;9.40;99.90
22795;DHT22;11564;50.920;11.612;2023-05-16T04:26:23;9.40;99.90
22795;DHT22;11564;50.920;11.612;2023-05-16T04:28:49;9.50;99.90
22795;DHT22;11564;50.920;11.612;2023-05-16T04:31:15;9.60;99.90
22795;DHT22;11564;50.920;11.612;2023-05-16T04:33:41;9.70;99.90
22795;DHT22;11564;50.920;11.612;2023-05-16T04:36:07;9.80;99.90
22795;DHT22;11564;50.920;11.612;2023-05-16T04:38:32;9.90;99.90
22795;DHT22;11564;50.920;11.612;2023-05-16T04:40:58;9.90;99.90
22795;DHT22;11564;50.920;11.612;2023-05-16T04:43:25;10.00;99.90
22795;DHT22;11564;50.920;11.612;2023-05-16T04:45:51;10.10;99.90
22795;DHT22;11564;50.920;11.612;2023-05-16T04:48:18;10.00;99.90
22795;DHT22;11564;50.920;11.612;2023-05-16T04:50:44;10.00;99.90
22795;DHT22;11564;50.920;11.612;2023-05-16T04:53:09;10.10;99.90
22795;DHT22;11564;50.920;11.612;2023-05-16T04:55:35;10.00;99.90
22795;DHT22;11564;50.920;11.612;2023-05-16T04:58:01;10.00;99.90
22795;DHT22;11564;50.920;11.612;2023-05-16T05:00:27;9.90;99.90
22795;DHT22;11564;50.920;11.612;2023-05-16T05:02:52;9.90;99.90
22795;DHT22;11564;50.920;11.612;2023-05-16T05:05:18;9.70;99.90
22795;DHT22;11564;50.920;11.612;2023-05-16T05:07:44;9.70;99.90
22795;DHT22;11564;50.920;11.612;2023-05-16T05:10:10;9.70;99.90
22795;DHT22;11564;50.920;11.612;2023-05-16T05:12:36;9.70;99.90
22795;DHT22;11564;50.920;11.612;2023-05-16T05:15:02;9.80;99.90
22795;DHT22;11564;50.920;11.612;2023-05-16T05:17:28;10.00;99.90
22795;DHT22;11564;50.920;11.612;2023-05-16T05:19:55;10.00;99.90
22795;DHT22;11564;50.920;11.612;2023-05-16T05:22:20;10.10;99.90
22795;DHT22;11564;50.920;11.612;2023-05-16T05:24:46;10.20;99.90
22795;DHT22;11564;50.920;11.612;2023-05-16T05:27:12;10.10;99.90
22795;DHT22;11564;50.920;11.612;2023-05-16T05:29:38;10.00;99.90
22795;DHT22;11564;50.920;11.612;2023-05-16T05:32:04;9.80;99.90
22795;DHT22;11564;50.920;11.612;2023-05-16T05:34:29;9.80;99.90
22795;DHT22;11564;50.920;11.612;2023-05-16T05:36:55;9.70;99.90
22795;DHT22;11564;50.920;11.612;2023-05-16T05:39:21;9.80;99.90
22795;DHT22;11564;50.920;11.612;2023-05-16T05:41:47;9.80;99.90
22795;DHT22;11564;50.920;11.612;2023-05-16T05:44:12;9.80;99.90
22795;DHT22;11564;50.920;11.612;2023-05-16T05:46:38;9.80;99.90
22795;DHT22;11564;50.920;11.612;2023-05-16T05:49:04;9.70;99.90
22795;DHT22;11564;50.920;11.612;2023-05-16T05:51:30;9.70;99.90
22795;DHT22;11564;50.920;11.612;2023-05-16T05:53:56;9.80;99.90
22795;DHT22;11564;50.920;11.612;2023-05-16T05:56:22;9.70;99.90
22795;DHT22;11564;50.920;11.612;2023-05-16T05:58:49;9.80;99.90
22795;DHT22;11564;50.920;11.612;2023-05-16T06:01:15;9.80;99.90
22795;DHT22;11564;50.920;11.612;2023-05-16T06:03:41;10.00;99.90
22795;DHT22;11564;50.920;11.612;2023-05-16T06:06:07;10.20;99.90
22795;DHT22;11564;50.920;11.612;2023-05-16T06:08:33;10.20;99.90
22795;DHT22;11564;50.920;11.612;2023-05-16T06:11:00;10.20;99.90
22795;DHT22;11564;50.920;11.612;2023-05-16T06:13:26;10.30;99.90
22795;DHT22;11564;50.920;11.612;2023-05-16T06:15:52;10.40;99.90
22795;DHT22;11564;50.920;11.612;2023-05-16T06:18:18;10.40;99.90
22795;DHT22;11564;50.920;11.612;2023-05-16T06:20:44;10.50;99.90
22795;DHT22;11564;50.920;11.612;2023-05-16T06:23:09;10.60;99.90
22795;DHT22;11564;50.920;11.612;2023-05-16T06:25:35;10.50;99.90
22795;DHT22;11564;50.920;11.612;2023-05-16T06:28:01;10.60;99.90
22795;DHT22;11564;50.920;11.612;2023-05-16T06:30:26;10.60;99.90
22795;DHT22;11564;50.920;11.612;2023-05-16T06:32:52;10.60;99.90
22795;DHT22;11564;50.920;11.612;2023-05-16T06:35:18;10.40;99.90
22795;DHT22;11564;50.920;11.612;2023-05-16T06:37:43;10.10;99.90
22795;DHT22;11564;50.920;11.612;2023-05-16T06:40:11;10.00;99.90
22795;DHT22;11564;50.920;11.612;2023-05-16T06:42:36;10.10;99.90
22795;DHT22;11564;50.920;11.612;2023-05-16T06:45:02;10.10;99.90
22795;DHT22;11564;50.920;11.612;2023-05-16T06:47:28;10.10;99.90
22795;DHT22;11564;50.920;11.612;2023-05-16T06:49:53;10.20;99.90
22795;DHT22;11564;50.920;11.612;2023-05-16T06:52:20;10.30;99.90
22795;DHT22;11564;50.920;11.612;2023-05-16T06:54:46;10.30;99.90
22795;DHT22;11564;50.920;11.612;2023-05-16T06:57:11;10.20;99.90
22795;DHT22;11564;50.920;11.612;2023-05-16T06:59:38;10.30;99.90
22795;DHT22;11564;50.920;11.612;2023-05-16T07:02:04;10.40;99.90
22795;DHT22;11564;50.920;11.612;2023-05-16T07:04:29;10.10;99.90
22795;DHT22;11564;50.920;11.612;2023-05-16T07:06:55;10.00;99.90
22795;DHT22;11564;50.920;11.612;2023-05-16T07:09:21;10.10;99.90
22795;DHT22;11564;50.920;11.612;2023-05-16T07:11:47;10.00;99.90
22795;DHT22;11564;50.920;11.612;2023-05-16T07:14:12;10.00;99.90
22795;DHT22;11564;50.920;11.612;2023-05-16T07:16:38;10.00;99.90
22795;DHT22;11564;50.920;11.612;2023-05-16T07:19:04;10.00;99.90
22795;DHT22;11564;50.920;11.612;2023-05-16T07:21:29;9.80;99.90
22795;DHT22;11564;50.920;11.612;2023-05-16T07:23:56;9.90;99.90
22795;DHT22;11564;50.920;11.612;2023-05-16T07:26:22;10.10;99.90
22795;DHT22;11564;50.920;11.612;2023-05-16T07:28:51;10.20;99.90
22795;DHT22;11564;50.920;11.612;2023-05-16T07:31:17;10.10;99.90
22795;DHT22;11564;50.920;11.612;2023-05-16T07:33:43;10.00;99.90
22795;DHT22;11564;50.920;11.612;2023-05-16T07:36:11;10.10;99.90
22795;DHT22;11564;50.920;11.612;2023-05-16T07:38:37;10.10;99.90
22795;DHT22;11564;50.920;11.612;2023-05-16T07:41:02;10.00;99.90
22795;DHT22;11564;50.920;11.612;2023-05-16T07:43:28;10.00;99.90
22795;DHT22;11564;50.920;11.612;2023-05-16T07:45:54;10.00;99.90
22795;DHT22;11564;50.920;11.612;2023-05-16T07:48:20;10.20;99.90
22795;DHT22;11564;50.920;11.612;2023-05-16T07:50:46;10.20;99.90
22795;DHT22;11564;50.920;11.612;2023-05-16T07:53:12;10.30;99.90
22795;DHT22;11564;50.920;11.612;2023-05-16T07:55:37;10.30;99.90
22795;DHT22;11564;50.920;11.612;2023-05-16T07:58:03;10.40;99.90
22795;DHT22;11564;50.920;11.612;2023-05-16T08:00:28;10.50;99.90
22795;DHT22;11564;50.920;11.612;2023-05-16T08:02:55;10.60;99.90
22795;DHT22;11564;50.920;11.612;2023-05-16T08:05:21;10.60;99.90
22795;DHT22;11564;50.920;11.612;2023-05-16T08:07:47;10.50;99.90
22795;DHT22;11564;50.920;11.612;2023-05-16T08:10:13;10.60;99.90
22795;DHT22;11564;50.920;11.612;2023-05-16T08:12:38;10.90;99.90
22795;DHT22;11564;50.920;11.612;2023-05-16T08:15:04;10.80;99.90
22795;DHT22;11564;50.920;11.612;2023-05-16T08:17:30;10.80;99.90
22795;DHT22;11564;50.920;11.612;2023-05-16T08:19:56;10.80;99.90
22795;DHT22;11564;50.920;11.612;2023-05-16T08:22:24;10.90;99.90
22795;DHT22;11564;50.920;11.612;2023-05-16T08:24:49;11.10;99.90
22795;DHT22;11564;50.920;11.612;2023-05-16T08:27:15;11.00;99.90
22795;DHT22;11564;50.920;11.612;2023-05-16T08:29:41;11.10;99.90
22795;DHT22;11564;50.920;11.612;2023-05-16T08:32:08;11.20;99.90
22795;DHT22;11564;50.920;11.612;2023-05-16T08:34:35;11.30;99.90
22795;DHT22;11564;50.920;11.612;2023-05-16T08:37:01;11.30;99.90
22795;DHT22;11564;50.920;11.612;2023-05-16T08:39:26;11.30;99.90
22795;DHT22;11564;50.920;11.612;2023-05-16T08:41:53;11.30;99.90
22795;DHT22;11564;50.920;11.612;2023-05-16T08:44:18;11.40;99.90
22795;DHT22;11564;50.920;11.612;2023-05-16T08:46:50;11.30;99.90
22795;DHT22;11564;50.920;11.612;2023-05-16T08:49:20;11.00;99.90
22795;DHT22;11564;50.920;11.612;2023-05-16T08:51:47;10.90;99.90
22795;DHT22;11564;50.920;11.612;2023-05-16T08:54:14;10.80;99.90
22795;DHT22;11564;50.920;11.612;2023-05-16T08:56:41;10.80;99.90
22795;DHT22;11564;50.920;11.612;2023-05-16T08:59:07;10.70;99.90
22795;DHT22;11564;50.920;11.612;2023-05-16T09:01:33;10.60;99.90
22795;DHT22;11564;50.920;11.612;2023-05-16T09:03:59;10.60;99.90
22795;DHT22;11564;50.920;11.612;2023-05-16T09:06:26;10.70;99.90
22795;DHT22;11564;50.920;11.612;2023-05-16T09:08:52;10.70;99.90
22795;DHT22;11564;50.920;11.612;2023-05-16T09:11:18;10.70;99.90
22795;DHT22;11564;50.920;11.612;2023-05-16T09:13:44;10.70;99.90
22795;DHT22;11564;50.920;11.612;2023-05-16T09:16:12;10.80;99.90
22795;DHT22;11564;50.920;11.612;2023-05-16T09:18:39;10.80;99.90
22795;DHT22;11564;50.920;11.612;2023-05-16T09:21:05;10.70;99.90
22795;DHT22;11564;50.920;11.612;2023-05-16T09:23:34;11.00;99.90
22795;DHT22;11564;50.920;11.612;2023-05-16T09:26:00;11.00;99.90
22795;DHT22;11564;50.920;11.612;2023-05-16T09:28:26;11.20;99.90
22795;DHT22;11564;50.920;11.612;2023-05-16T09:30:52;11.30;99.90
22795;DHT22;11564;50.920;11.612;2023-05-16T09:33:21;11.40;99.90
22795;DHT22;11564;50.920;11.612;2023-05-16T09:36:02;11.50;99.90
22795;DHT22;11564;50.920;11.612;2023-05-16T09:38:28;11.40;99.90
22795;DHT22;11564;50.920;11.612;2023-05-16T09:40:54;11.30;99.90
22795;DHT22;11564;50.920;11.612;2023-05-16T09:43:25;11.30;99.90
22795;DHT22;11564;50.920;11.612;2023-05-16T09:45:51;11.40;99.90
22795;DHT22;11564;50.920;11.612;2023-05-16T09:48:17;11.30;99.90
22795;DHT22;11564;50.920;11.612;2023-05-16T09:50:49;11.70;99.90
22795;DHT22;11564;50.920;11.612;2023-05-16T09:53:16;11.70;99.90
22795;DHT22;11564;50.920;11.612;2023-05-16T09:55:42;11.60;99.90
22795;DHT22;11564;50.920;11.612;2023-05-16T09:58:08;11.70;99.90
22795;DHT22;11564;50.920;11.612;2023-05-16T10:00:33;11.70;99.90
22795;DHT22;11564;50.920;11.612;2023-05-16T10:03:01;11.60;99.90
22795;DHT22;11564;50.920;11.612;2023-05-16T10:05:30;11.50;99.90
22795;DHT22;11564;50.920;11.612;2023-05-16T10:07:56;11.50;99.90
22795;DHT22;11564;50.920;11.612;2023-05-16T10:10:23;11.40;99.90
22795;DHT22;11564;50.920;11.612;2023-05-16T10:12:50;11.50;99.90
22795;DHT22;11564;50.920;11.612;2023-05-16T10:15:16;11.30;99.90
22795;DHT22;11564;50.920;11.612;2023-05-16T10:17:44;11.20;99.90
22795;DHT22;11564;50.920;11.612;2023-05-16T10:20:11;11.20;99.90
22795;DHT22;11564;50.920;11.612;2023-05-16T10:22:42;11.40;99.90
22795;DHT22;11564;50.920;11.612;2023-05-16T10:27:41;11.30;99.90
22795;DHT22;11564;50.920;11.612;2023-05-16T10:30:07;11.50;99.90
22795;DHT22;11564;50.920;11.612;2023-05-16T10:32:35;11.70;99.90
22795;DHT22;11564;50.920;11.612;2023-05-16T10:35:02;11.40;99.90
22795;DHT22;11564;50.920;11.612;2023-05-16T10:37:30;11.30;99.90
22795;DHT22;11564;50.920;11.612;2023-05-16T10:39:58;11.10;99.90
22795;DHT22;11564;50.920;11.612;2023-05-16T10:42:24;11.20;99.90
22795;DHT22;11564;50.920;11.612;2023-05-16T10:44:53;11.30;99.90
22795;DHT22;11564;50.920;11.612;2023-05-16T10:47:19;11.20;99.90
22795;DHT22;11564;50.920;11.612;2023-05-16T10:49:45;11.20;99.90
22795;DHT22;11564;50.920;11.612;2023-05-16T10:52:12;11.20;99.90
22795;DHT22;11564;50.920;11.612;2023-05-16T10:54:40;11.30;99.90
22795;DHT22;11564;50.920;11.612;2023-05-16T10:57:15;11.30;99.90
22795;DHT22;11564;50.920;11.612;2023-05-16T10:59:46;11.20;99.90
22795;DHT22;11564;50.920;11.612;2023-05-16T11:02:32;11.20;99.90
22795;DHT22;11564;50.920;11.612;2023-05-16T11:05:00;11.10;99.90
22795;DHT22;11564;50.920;11.612;2023-05-16T11:07:34;11.00;99.90
22795;DHT22;11564;50.920;11.612;2023-05-16T11:10:05;11.10;99.90
22795;DHT22;11564;50.920;11.612;2023-05-16T11:12:42;10.90;99.90
22795;DHT22;11564;50.920;11.612;2023-05-16T11:15:25;11.20;99.90
22795;DHT22;11564;50.920;11.612;2023-05-16T11:18:13;11.50;99.90
22795;DHT22;11564;50.920;11.612;2023-05-16T11:20:40;11.80;99.90
22795;DHT22;11564;50.920;11.612;2023-05-16T11:25:42;11.50;99.90
22795;DHT22;11564;50.920;11.612;2023-05-16T11:28:11;11.50;99.90
22795;DHT22;11564;50.920;11.612;2023-05-16T11:30:48;11.80;99.90
22795;DHT22;11564;50.920;11.612;2023-05-16T11:33:14;11.50;99.90
22795;DHT22;11564;50.920;11.612;2023-05-16T11:35:40;11.50;99.90
22795;DHT22;11564;50.920;11.612;2023-05-16T11:38:14;11.50;99.90
22795;DHT22;11564;50.920;11.612;2023-05-16T11:40:43;11.60;99.90
22795;DHT22;11564;50.920;11.612;2023-05-16T11:43:09;11.70;99.90
22795;DHT22;11564;50.920;11.612;2023-05-16T11:45:34;11.60;99.90
22795;DHT22;11564;50.920;11.612;2023-05-16T11:48:03;11.30;99.90
22795;DHT22;11564;50.920;11.612;2023-05-16T11:50:29;11.10;99.90
22795;DHT22;11564;50.920;11.612;2023-05-16T11:52:55;11.00;99.90
22795;DHT22;11564;50.920;11.612;2023-05-16T11:55:24;11.20;99.90
22795;DHT22;11564;50.920;11.612;2023-05-16T11:57:53;11.00;99.90
22795;DHT22;11564;50.920;11.612;2023-05-16T12:00:21;10.80;99.90
22795;DHT22;11564;50.920;11.612;2023-05-16T12:02:49;10.90;99.90
22795;DHT22;11564;50.920;11.612;2023-05-16T12:05:16;11.10;99.90
22795;DHT22;11564;50.920;11.612;2023-05-16T12:07:43;11.00;99.90
22795;DHT22;11564;50.920;11.612;2023-05-16T12:10:10;10.90;99.90
22795;DHT22;11564;50.920;11.612;2023-05-16T12:12:38;10.90;99.90
22795;DHT22;11564;50.920;11.612;2023-05-16T12:15:06;11.00;99.90
22795;DHT22;11564;50.920;11.612;2023-05-16T12:17:36;11.00;99.90
22795;DHT22;11564;50.920;11.612;2023-05-16T12:20:03;11.30;99.90
22795;DHT22;11564;50.920;11.612;2023-05-16T12:22:30;11.50;99.90
22795;DHT22;11564;50.920;11.612;2023-05-16T12:24:58;11.70;99.90
22795;DHT22;11564;50.920;11.612;2023-05-16T12:27:25;11.80;99.90
22795;DHT22;11564;50.920;11.612;2023-05-16T12:29:51;12.10;99.90
22795;DHT22;11564;50.920;11.612;2023-05-16T12:32:18;12.10;99.90
22795;DHT22;11564;50.920;11.612;2023-05-16T12:34:51;12.30;99.90
22795;DHT22;11564;50.920;11.612;2023-05-16T12:37:17;12.20;99.90
22795;DHT22;11564;50.920;11.612;2023-05-16T12:39:44;12.40;99.90
22795;DHT22;11564;50.920;11.612;2023-05-16T12:42:13;12.40;99.90
22795;DHT22;11564;50.920;11.612;2023-05-16T12:44:39;12.40;99.90
22795;DHT22;11564;50.920;11.612;2023-05-16T12:47:12;12.70;99.90
22795;DHT22;11564;50.920;11.612;2023-05-16T12:49:44;12.20;99.90
22795;DHT22;11564;50.920;11.612;2023-05-16T12:52:16;12.30;99.90
22795;DHT22;11564;50.920;11.612;2023-05-16T12:54:44;12.50;99.90
22795;DHT22;11564;50.920;11.612;2023-05-16T12:57:09;12.60;99.90
22795;DHT22;11564;50.920;11.612;2023-05-16T12:59:35;12.70;99.90
22795;DHT22;11564;50.920;11.612;2023-05-16T13:02:01;12.60;99.90
22795;DHT22;11564;50.920;11.612;2023-05-16T13:04:28;12.50;99.90
22795;DHT22;11564;50.920;11.612;2023-05-16T13:06:54;12.90;99.90
22795;DHT22;11564;50.920;11.612;2023-05-16T13:09:20;12.90;99.90
22795;DHT22;11564;50.920;11.612;2023-05-16T13:11:46;13.60;99.90
22795;DHT22;11564;50.920;11.612;2023-05-16T13:14:12;14.80;99.90
22795;DHT22;11564;50.920;11.612;2023-05-16T13:16:38;16.10;99.90
22795;DHT22;11564;50.920;11.612;2023-05-16T13:19:03;18.20;99.90
22795;DHT22;11564;50.920;11.612;2023-05-16T13:21:30;17.50;99.50
22795;DHT22;11564;50.920;11.612;2023-05-16T13:23:56;16.80;98.40
22795;DHT22;11564;50.920;11.612;2023-05-16T13:26:23;16.30;99.10
22795;DHT22;11564;50.920;11.612;2023-05-16T13:28:48;16.10;99.90
22795;DHT22;11564;50.920;11.612;2023-05-16T13:31:17;16.20;99.90
22795;DHT22;11564;50.920;11.612;2023-05-16T13:33:43;15.70;99.30
22795;DHT22;11564;50.920;11.612;2023-05-16T13:36:09;15.30;99.90
22795;DHT22;11564;50.920;11.612;2023-05-16T13:38:35;15.20;99.10
22795;DHT22;11564;50.920;11.612;2023-05-16T13:41:00;15.20;99.20
22795;DHT22;11564;50.920;11.612;2023-05-16T13:43:26;14.50;98.60
22795;DHT22;11564;50.920;11.612;2023-05-16T13:45:52;14.80;98.40
22795;DHT22;11564;50.920;11.612;2023-05-16T13:48:17;15.00;98.70
22795;DHT22;11564;50.920;11.612;2023-05-16T13:50:44;14.70;98.00
22795;DHT22;11564;50.920;11.612;2023-05-16T13:53:09;14.90;97.80
22795;DHT22;11564;50.920;11.612;2023-05-16T13:55:35;15.20;97.90
22795;DHT22;11564;50.920;11.612;2023-05-16T13:58:01;15.80;97.10
22795;DHT22;11564;50.920;11.612;2023-05-16T14:00:28;16.60;96.90
22795;DHT22;11564;50.920;11.612;2023-05-16T14:02:53;17.50;95.50
22795;DHT22;11564;50.920;11.612;2023-05-16T14:05:19;18.40;91.80
22795;DHT22;11564;50.920;11.612;2023-05-16T14:07:45;17.30;90.10
22795;DHT22;11564;50.920;11.612;2023-05-16T14:10:10;16.10;91.40
22795;DHT22;11564;50.920;11.612;2023-05-16T14:12:36;15.30;92.40
22795;DHT22;11564;50.920;11.612;2023-05-16T14:15:03;15.00;91.40
22795;DHT22;11564;50.920;11.612;2023-05-16T14:17:29;14.60;91.40
22795;DHT22;11564;50.920;11.612;2023-05-16T14:19:55;14.10;92.20
22795;DHT22;11564;50.920;11.612;2023-05-16T14:22:20;13.70;92.50
22795;DHT22;11564;50.920;11.612;2023-05-16T14:24:46;13.70;92.00
22795;DHT22;11564;50.920;11.612;2023-05-16T14:27:12;13.50;92.20
22795;DHT22;11564;50.920;11.612;2023-05-16T14:29:39;13.30;92.00
22795;DHT22;11564;50.920;11.612;2023-05-16T14:32:05;13.10;92.00
22795;DHT22;11564;50.920;11.612;2023-05-16T14:34:31;13.00;92.10
22795;DHT22;11564;50.920;11.612;2023-05-16T14:36:57;13.10;92.10
22795;DHT22;11564;50.920;11.612;2023-05-16T14:39:22;13.30;91.90
22795;DHT22;11564;50.920;11.612;2023-05-16T14:41:48;13.20;92.60
22795;DHT22;11564;50.920;11.612;2023-05-16T14:44:14;13.20;92.00
22795;DHT22;11564;50.920;11.612;2023-05-16T14:46:39;13.20;92.10
22795;DHT22;11564;50.920;11.612;2023-05-16T14:49:05;13.20;91.80
22795;DHT22;11564;50.920;11.612;2023-05-16T14:51:31;13.30;91.60
22795;DHT22;11564;50.920;11.612;2023-05-16T14:53:56;13.30;91.70
22795;DHT22;11564;50.920;11.612;2023-05-16T14:56:22;13.40;91.40
22795;DHT22;11564;50.920;11.612;2023-05-16T14:58:50;13.50;90.90
22795;DHT22;11564;50.920;11.612;2023-05-16T15:01:16;13.40;90.90
22795;DHT22;11564;50.920;11.612;2023-05-16T15:03:41;13.40;90.80
22795;DHT22;11564;50.920;11.612;2023-05-16T15:06:07;13.40;91.10
22795;DHT22;11564;50.920;11.612;2023-05-16T15:08:33;13.40;91.50
22795;DHT22;11564;50.920;11.612;2023-05-16T15:10:59;13.40;92.10
22795;DHT22;11564;50.920;11.612;2023-05-16T15:13:25;13.60;91.20
22795;DHT22;11564;50.920;11.612;2023-05-16T15:15:51;14.40;91.30
22795;DHT22;11564;50.920;11.612;2023-05-16T15:18:16;16.40;87.20
22795;DHT22;11564;50.920;11.612;2023-05-16T15:20:42;16.50;86.20
22795;DHT22;11564;50.920;11.612;2023-05-16T15:23:08;16.10;85.40
22795;DHT22;11564;50.920;11.612;2023-05-16T15:25:34;15.10;86.80
22795;DHT22;11564;50.920;11.612;2023-05-16T15:28:00;14.80;86.80
22795;DHT22;11564;50.920;11.612;2023-05-16T15:30:26;14.40;88.00